Time;durP1;ratioP1;P1;durP2;ratioP2;P2;SDS_P1;SDS_P2;PMS_P1;PMS_P2;Temp;Humidity;BMP_temperature;BMP_pressure;BME280_temperature;BME280_humidity;BME280_pressure;Samples;Min_cycle;Max_cycle;Signal;HPM_P1;HPM_P2
2022/08/28 00:00:43;;;;;;;11.60;4.60;;;;;;;15.94;66.24;101854.16;4917820;29;20048;-74
2022/08/28 00:03:12;;;;;;;13.48;3.95;;;;;;;15.88;66.58;101860.56;4916156;29;20075;-75
2022/08/28 00:05:39;;;;;;;12.48;4.35;;;;;;;15.86;66.54;101856.19;4917303;29;20040;-74
2022/08/28 00:08:05;;;;;;;14.25;4.28;;;;;;;15.85;66.81;101865.09;4917417;29;20032;-74
2022/08/28 00:10:31;;;;;;;13.85;4.43;;;;;;;15.82;66.69;101862.50;4917353;29;20063;-75
2022/08/28 00:12:57;;;;;;;16.00;4.82;;;;;;;15.81;66.53;101858.09;4917278;29;20480;-81
2022/08/28 00:15:28;;;;;;;14.93;4.28;;;;;;;15.79;66.83;101855.47;4917112;29;20040;-81
2022/08/28 00:17:54;;;;;;;12.35;4.47;;;;;;;15.76;67.39;101860.88;4917141;29;20040;-81
2022/08/28 00:20:21;;;;;;;14.63;4.85;;;;;;;15.72;67.36;101856.53;4917159;29;20079;-81
2022/08/28 00:22:48;;;;;;;16.17;4.57;;;;;;;15.68;67.49;101857.53;4894369;29;20052;-81
2022/08/28 00:25:16;;;;;;;13.32;4.05;;;;;;;15.67;67.74;101866.44;4897835;29;20059;-82
2022/08/28 00:27:53;;;;;;;16.92;4.15;;;;;;;15.64;67.87;101862.06;4898423;29;20035;-81
2022/08/28 00:30:26;;;;;;;10.95;4.75;;;;;;;15.60;67.84;101857.75;4916937;29;20127;-81
2022/08/28 00:32:53;;;;;;;13.70;4.70;;;;;;;15.57;68.23;101865.81;4916796;29;20028;-81
2022/08/28 00:35:20;;;;;;;14.50;5.18;;;;;;;15.53;68.53;101860.56;4899752;29;21038;-81
2022/08/28 00:37:46;;;;;;;14.40;4.10;;;;;;;15.50;68.62;101864.22;4915674;29;20064;-81
2022/08/28 00:40:15;;;;;;;11.27;3.80;;;;;;;15.45;68.30;101863.44;4916574;29;20130;-81
2022/08/28 00:42:41;;;;;;;13.75;4.40;;;;;;;15.43;69.15;101865.28;4899469;29;20044;-81
2022/08/28 00:45:08;;;;;;;22.50;4.97;;;;;;;15.42;68.90;101863.53;4916531;29;20032;-81
2022/08/28 00:47:34;;;;;;;13.50;4.68;;;;;;;15.39;69.38;101867.16;4883909;29;20039;-81
2022/08/28 00:50:02;;;;;;;17.02;4.35;;;;;;;15.39;69.17;101867.16;4914525;29;20044;-81
2022/08/28 00:52:28;;;;;;;18.08;4.65;;;;;;;15.36;69.33;101869.06;4909860;29;20524;-82
2022/08/28 00:54:58;;;;;;;11.88;4.60;;;;;;;15.33;69.69;101863.75;4915749;29;20194;-81
2022/08/28 00:57:28;;;;;;;14.93;4.40;;;;;;;15.30;69.64;101869.19;4897618;29;20052;-81
2022/08/28 00:59:53;;;;;;;11.48;4.22;;;;;;;15.27;69.96;101863.00;4877819;29;20036;-81
2022/08/28 01:02:20;;;;;;;14.77;5.15;;;;;;;15.24;70.06;101865.75;4899124;29;20498;-81
2022/08/28 01:04:47;;;;;;;20.05;5.38;;;;;;;15.19;70.60;101866.78;4916084;29;20612;-81
2022/08/28 01:07:14;;;;;;;14.27;4.68;;;;;;;15.15;70.96;101879.31;4916028;29;20126;-81
2022/08/28 01:09:49;;;;;;;13.90;5.95;;;;;;;15.13;70.48;101873.13;4898803;29;20055;-81
2022/08/28 01:12:28;;;;;;;13.50;4.32;;;;;;;15.11;70.76;101874.09;4899202;29;20122;-82
2022/08/28 01:14:58;;;;;;;13.43;4.60;;;;;;;15.08;71.09;101876.84;4915900;29;20040;-81
2022/08/28 01:17:28;;;;;;;10.60;4.28;;;;;;;15.08;70.94;101876.84;4915828;29;20036;-82
2022/08/28 01:20:01;;;;;;;12.57;4.25;;;;;;;15.05;71.02;101888.47;4906271;29;20414;-81
2022/08/28 01:22:36;;;;;;;16.83;4.40;;;;;;;15.04;71.21;101884.94;4913354;29;20044;-81
2022/08/28 01:25:06;;;;;;;11.43;4.13;;;;;;;15.04;70.86;101881.38;4913934;29;20059;-81
2022/08/28 01:27:32;;;;;;;16.50;4.18;;;;;;;15.02;71.28;101878.75;4903335;29;20044;-81
2022/08/28 01:29:58;;;;;;;14.00;4.15;;;;;;;14.99;71.78;101875.28;4915587;29;20039;-81
2022/08/28 01:32:46;;;;;;;12.65;4.30;;;;;;;14.95;71.39;101879.78;4914744;29;20040;-82
2022/08/28 01:35:16;;;;;;;10.30;4.25;;;;;;;14.90;71.97;101876.38;4887378;29;20036;-81
2022/08/28 01:37:42;;;;;;;17.67;4.47;;;;;;;14.88;71.94;101886.19;4915368;29;20032;-81
2022/08/28 01:40:10;;;;;;;13.13;3.85;;;;;;;14.86;72.37;101889.81;4918576;29;20127;-81
2022/08/28 01:42:43;;;;;;;14.70;4.15;;;;;;;14.82;71.76;101891.69;4899333;29;20171;-81
2022/08/28 01:45:13;;;;;;;11.98;3.95;;;;;;;14.77;72.06;101883.78;4898033;29;20475;-81
2022/08/28 01:47:41;;;;;;;13.18;4.43;;;;;;;14.77;72.17;101891.78;4917092;29;20119;-81
2022/08/28 01:50:09;;;;;;;9.07;4.15;;;;;;;14.74;72.41;101897.19;4916609;29;20481;-81
2022/08/28 01:52:35;;;;;;;8.93;4.53;;;;;;;14.72;72.46;101901.66;4917632;29;20081;-81
2022/08/28 01:55:02;;;;;;;15.98;4.40;;;;;;;14.70;72.32;101898.16;4914759;29;20036;-81
2022/08/28 01:57:27;;;;;;;10.38;3.90;;;;;;;14.66;72.61;101900.91;4915169;29;20198;-81
2022/08/28 01:59:56;;;;;;;12.07;4.25;;;;;;;14.63;72.15;101900.06;4885615;29;20389;-80
2022/08/28 02:02:21;;;;;;;9.20;4.00;;;;;;;14.63;72.00;101899.19;4913399;29;20044;-81
2022/08/28 02:04:47;;;;;;;12.32;4.63;;;;;;;14.61;72.44;101893.00;4914970;29;20212;-81
2022/08/28 02:07:13;;;;;;;10.75;4.13;;;;;;;14.55;72.89;101899.38;4913936;29;20120;-81
2022/08/28 02:09:38;;;;;;;13.40;4.00;;;;;;;14.53;73.05;101902.94;4913380;29;20044;-82
2022/08/28 02:12:05;;;;;;;13.80;4.55;;;;;;;14.51;72.46;101907.41;4882385;29;20323;-81
2022/08/28 02:14:31;;;;;;;11.13;3.95;;;;;;;14.48;71.91;101911.03;4917407;29;20119;-81
2022/08/28 02:16:57;;;;;;;11.52;4.22;;;;;;;14.44;72.11;101908.47;4917302;29;20127;-81
2022/08/28 02:19:23;;;;;;;12.02;4.63;;;;;;;14.38;72.66;101913.00;4897566;29;20480;-81
2022/08/28 02:21:49;;;;;;;12.43;4.13;;;;;;;14.36;72.63;101913.94;4917388;29;20134;-81
2022/08/28 02:24:15;;;;;;;11.27;4.18;;;;;;;14.35;72.78;101915.75;4879861;29;20068;-81
2022/08/28 02:26:43;;;;;;;8.20;3.97;;;;;;;14.29;72.75;101915.88;4869623;29;20037;-82
2022/08/28 02:29:10;;;;;;;13.23;4.32;;;;;;;14.26;73.77;101913.25;4913389;29;20452;-82
2022/08/28 02:31:35;;;;;;;13.48;4.35;;;;;;;14.24;73.41;101915.06;4915177;29;20040;-81
2022/08/28 02:34:01;;;;;;;11.30;4.13;;;;;;;14.20;73.74;101921.38;4914588;29;20032;-82
2022/08/28 02:36:29;;;;;;;10.05;3.88;;;;;;;14.18;74.09;101917.88;4915006;29;20028;-82
2022/08/28 02:38:55;;;;;;;12.85;4.63;;;;;;;14.11;73.33;101911.78;4880809;29;20365;-82
2022/08/28 02:41:21;;;;;;;10.15;4.13;;;;;;;14.09;74.29;101912.72;4918075;29;20059;-82
2022/08/28 02:43:46;;;;;;;10.32;4.20;;;;;;;14.06;74.14;101915.44;4917741;29;20517;-82
2022/08/28 02:46:12;;;;;;;15.02;4.35;;;;;;;14.02;74.54;101919.97;4914666;29;20044;-82
2022/08/28 02:48:39;;;;;;;12.52;4.35;;;;;;;14.01;74.53;101918.19;4915650;29;20123;-82
2022/08/28 02:51:11;;;;;;;12.07;3.92;;;;;;;13.99;74.59;101917.34;4902759;29;20350;-82
2022/08/28 02:53:38;;;;;;;9.27;4.18;;;;;;;13.96;75.42;101909.41;4914340;29;20110;-82
2022/08/28 02:56:05;;;;;;;13.93;4.60;;;;;;;13.93;75.61;101913.00;4881973;29;20050;-82
2022/08/28 02:58:32;;;;;;;15.52;4.60;;;;;;;13.90;75.85;101913.06;4891102;29;20178;-81
2022/08/28 03:01:00;;;;;;;19.13;5.05;;;;;;;13.88;75.73;101906.91;4915407;29;20529;-82
2022/08/28 03:03:30;;;;;;;13.05;3.90;;;;;;;13.86;75.66;101908.69;4885623;29;20036;-82
2022/08/28 03:05:57;;;;;;;13.45;4.38;;;;;;;13.83;76.27;101910.56;4903650;29;20048;-82
2022/08/28 03:08:23;;;;;;;14.68;4.90;;;;;;;13.81;76.46;101917.69;4899627;29;20131;-82
2022/08/28 03:10:49;;;;;;;11.05;3.88;;;;;;;13.79;76.72;101909.72;4918166;29;20096;-82
2022/08/28 03:13:16;;;;;;;7.72;4.30;;;;;;;13.74;75.96;101907.13;4885393;29;21247;-82
2022/08/28 03:15:46;;;;;;;15.88;4.70;;;;;;;13.72;76.59;101913.38;4915630;29;20147;-82
2022/08/28 03:18:14;;;;;;;10.00;3.88;;;;;;;13.69;76.81;101921.44;4900768;29;20032;-81
2022/08/28 03:20:44;;;;;;;9.00;4.18;;;;;;;13.66;76.81;101910.84;4918106;29;20057;-81
2022/08/28 03:23:25;;;;;;;10.90;3.92;;;;;;;13.65;76.27;101915.31;4917251;29;20079;-75
2022/08/28 03:25:55;;;;;;;14.40;4.43;;;;;;;13.64;76.57;101915.31;4901618;29;20072;-75
2022/08/28 03:28:21;;;;;;;12.73;4.63;;;;;;;13.59;76.56;101914.53;4901154;29;20421;-75
2022/08/28 03:30:47;;;;;;;17.50;4.75;;;;;;;13.55;76.76;101921.69;4917428;29;20028;-75
2022/08/28 03:33:18;;;;;;;13.45;4.03;;;;;;;13.52;77.20;101917.28;4900452;29;20036;-75
2022/08/28 03:35:43;;;;;;;12.73;4.28;;;;;;;13.52;77.15;101927.03;4900266;29;20055;-75
2022/08/28 03:38:10;;;;;;;14.05;3.90;;;;;;;13.50;77.35;101931.50;4917290;29;20040;-75
2022/08/28 03:40:41;;;;;;;16.05;4.07;;;;;;;13.47;77.91;101932.44;4900481;29;20381;-75
2022/08/28 03:43:08;;;;;;;;;;;;;;;13.58;75.29;101929.63;4917636;29;20074;-74
2022/08/28 03:45:33;;;;;;;14.05;3.72;;;;;;;13.49;77.64;101932.44;4917090;29;19974;-75
2022/08/28 03:47:59;;;;;;;11.88;4.38;;;;;;;13.46;77.74;101930.69;4916035;29;20036;-76
2022/08/28 03:50:24;;;;;;;13.77;4.45;;;;;;;13.44;77.63;101931.63;4877537;29;20369;-75
2022/08/28 03:52:49;;;;;;;10.27;4.40;;;;;;;13.40;77.98;101936.13;4882229;29;20044;-75
2022/08/28 03:55:18;;;;;;;19.33;4.35;;;;;;;13.37;78.66;101938.81;4899592;29;20044;-75
2022/08/28 03:57:47;;;;;;;13.63;4.50;;;;;;;13.37;78.54;101940.59;4883219;29;20392;-76
2022/08/28 04:00:16;;;;;;;15.55;4.95;;;;;;;13.34;78.31;101938.88;4868433;29;20032;-75
2022/08/28 04:02:43;;;;;;;14.35;4.80;;;;;;;13.34;78.41;101936.22;4884320;29;20047;-76
2022/08/28 04:05:09;;;;;;;8.60;4.05;;;;;;;13.32;77.57;101952.19;4884251;29;20055;-76
2022/08/28 04:07:36;;;;;;;10.65;4.45;;;;;;;13.31;78.04;101944.25;4915318;29;20040;-75
2022/08/28 04:10:02;;;;;;;14.38;4.50;;;;;;;13.26;77.82;101941.63;4916664;29;20040;-75
2022/08/28 04:12:28;;;;;;;9.40;4.10;;;;;;;13.25;78.05;101946.97;4916571;29;20099;-76
2022/08/28 04:14:54;;;;;;;15.52;5.22;;;;;;;13.23;78.40;101951.41;4899617;29;20044;-75
2022/08/28 04:17:19;;;;;;;11.13;4.50;;;;;;;13.23;78.03;101948.75;4916807;29;20024;-76
2022/08/28 04:19:45;;;;;;;12.35;5.28;;;;;;;13.18;78.21;101946.19;4900037;29;20508;-76
2022/08/28 04:22:10;;;;;;;13.60;5.18;;;;;;;13.17;78.55;101943.53;4899534;29;20127;-76
2022/08/28 04:24:36;;;;;;;17.08;4.60;;;;;;;13.14;78.50;101941.81;4899278;29;20048;-76
2022/08/28 04:27:02;;;;;;;12.73;4.45;;;;;;;13.11;78.44;101952.50;4916276;29;20044;-76
2022/08/28 04:29:28;;;;;;;12.43;4.32;;;;;;;13.07;78.23;101948.13;4899317;29;20032;-76
2022/08/28 04:31:55;;;;;;;11.60;4.78;;;;;;;13.03;78.71;101949.97;4916378;29;20123;-76
2022/08/28 04:34:20;;;;;;;11.45;4.43;;;;;;;12.95;77.82;101951.81;4916204;29;20040;-76
2022/08/28 04:36:49;;;;;;;19.20;5.00;;;;;;;12.91;78.37;101953.66;4915158;29;20051;-76
2022/08/28 04:39:15;;;;;;;13.30;4.53;;;;;;;12.89;78.70;101958.13;4916044;29;20055;-76
2022/08/28 04:41:40;;;;;;;15.02;4.75;;;;;;;12.87;79.54;101965.22;4913611;29;20035;-76
2022/08/28 04:44:06;;;;;;;13.65;4.70;;;;;;;12.82;79.36;101961.75;4915870;29;20401;-75
2022/08/28 04:46:32;;;;;;;8.82;4.63;;;;;;;12.79;78.73;101961.78;4914846;29;20055;-76
2022/08/28 04:48:59;;;;;;;10.77;5.00;;;;;;;12.75;79.50;101965.38;4898124;29;20071;-75
2022/08/28 04:51:25;;;;;;;10.05;4.35;;;;;;;12.73;79.78;101966.31;4915952;29;20460;-76
2022/08/28 04:53:51;;;;;;;15.02;4.43;;;;;;;12.73;80.49;101966.31;4915777;29;20040;-76
2022/08/28 04:56:17;;;;;;;9.35;4.25;;;;;;;12.70;79.48;101967.22;4898295;29;20034;-76
2022/08/28 04:58:43;;;;;;;8.82;4.20;;;;;;;12.66;80.62;101971.72;4915730;29;20130;-76
2022/08/28 05:01:26;;;;;;;12.40;4.43;;;;;;;12.68;79.11;101972.59;4916007;29;20119;-76
2022/08/28 05:03:56;;;;;;;8.60;4.40;;;;;;;12.63;80.67;101971.72;4897474;29;20051;-76
2022/08/28 05:06:25;;;;;;;12.93;4.65;;;;;;;12.63;80.93;101979.69;4913718;29;20036;-75
2022/08/28 05:08:51;;;;;;;15.23;4.80;;;;;;;12.61;80.76;101973.56;4914716;29;20139;-76
2022/08/28 05:11:20;;;;;;;10.55;4.75;;;;;;;12.61;81.00;101977.97;4899244;29;20042;-76
2022/08/28 05:13:46;;;;;;;13.23;5.00;;;;;;;12.62;80.29;101977.09;4916104;29;20413;-76
2022/08/28 05:16:13;;;;;;;15.65;4.47;;;;;;;12.65;81.32;101979.69;4916195;29;20377;-75
2022/08/28 05:18:38;;;;;;;10.98;4.55;;;;;;;12.61;80.91;101984.19;4915893;29;20032;-75
2022/08/28 05:21:11;;;;;;;13.65;4.75;;;;;;;12.64;81.78;101993.91;4898897;29;20051;-76
2022/08/28 05:23:36;;;;;;;14.88;4.53;;;;;;;12.63;81.21;101995.66;4915096;29;20048;-75
2022/08/28 05:26:03;;;;;;;15.40;4.45;;;;;;;12.64;81.63;101994.75;4916123;29;20108;-76
2022/08/28 05:28:29;;;;;;;11.00;4.53;;;;;;;12.63;81.72;101992.13;4898764;29;20048;-75
2022/08/28 05:30:54;;;;;;;12.10;4.03;;;;;;;12.61;81.43;101992.16;4915874;29;20054;-75
2022/08/28 05:33:20;;;;;;;13.40;4.65;;;;;;;12.61;81.87;101996.56;4883252;29;20032;-76
2022/08/28 05:35:46;;;;;;;15.43;4.70;;;;;;;12.62;82.09;102003.66;4915734;29;20044;-75
2022/08/28 05:38:13;;;;;;;10.80;4.65;;;;;;;12.63;82.03;102006.28;4898577;29;20036;-76
2022/08/28 05:40:44;;;;;;;10.38;4.68;;;;;;;12.66;82.00;102005.34;4915730;29;20040;-75
2022/08/28 05:43:12;;;;;;;16.02;4.68;;;;;;;12.70;81.54;102005.31;4902348;29;20036;-75
2022/08/28 05:45:38;;;;;;;12.00;4.80;;;;;;;12.77;82.04;102005.25;4890222;29;20029;-75
2022/08/28 05:48:03;;;;;;;11.63;4.82;;;;;;;12.80;82.43;102006.06;4914117;29;20054;-75
2022/08/28 05:50:30;;;;;;;13.88;5.43;;;;;;;12.88;82.48;102006.88;4889895;29;20041;-75
2022/08/28 05:52:56;;;;;;;8.98;4.43;;;;;;;12.94;82.43;102007.69;4897927;29;20040;-75
2022/08/28 05:55:21;;;;;;;16.85;5.00;;;;;;;12.98;82.64;102002.31;4913228;29;20055;-75
2022/08/28 05:57:47;;;;;;;12.10;4.80;;;;;;;13.05;82.37;102005.75;4897957;29;20044;-75
2022/08/28 06:00:13;;;;;;;14.02;4.97;;;;;;;13.10;82.69;102002.16;4897884;29;20580;-75
2022/08/28 06:02:40;;;;;;;11.70;4.85;;;;;;;13.20;82.59;102007.31;4914983;29;20028;-75
2022/08/28 06:05:06;;;;;;;18.08;4.90;;;;;;;13.26;82.84;102010.78;4897555;29;20064;-76
2022/08/28 06:07:32;;;;;;;12.00;5.32;;;;;;;13.32;82.79;102016.03;4894350;29;20083;-76
2022/08/28 06:09:58;;;;;;;14.40;5.18;;;;;;;13.39;81.99;102016.84;4914715;29;20493;-76
2022/08/28 06:12:24;;;;;;;12.40;5.68;;;;;;;13.47;81.98;102014.94;4895387;29;20504;-76
2022/08/28 06:14:49;;;;;;;12.10;4.32;;;;;;;13.56;82.23;102021.91;4898010;29;20040;-76
2022/08/28 06:17:14;;;;;;;13.82;4.68;;;;;;;13.63;81.71;102017.38;4914881;29;20440;-76
2022/08/28 06:19:40;;;;;;;13.85;4.70;;;;;;;13.71;81.64;102021.66;4889866;29;20048;-76
2022/08/28 06:22:06;;;;;;;12.13;4.60;;;;;;;13.79;81.65;102023.31;4914846;29;20175;-75
2022/08/28 06:24:32;;;;;;;17.15;5.15;;;;;;;13.86;81.04;102022.31;4897468;29;20147;-76
2022/08/28 06:26:58;;;;;;;17.58;5.63;;;;;;;13.93;81.15;102024.84;4915115;29;20048;-76
2022/08/28 06:29:26;;;;;;;15.30;5.05;;;;;;;14.02;80.74;102020.25;4882752;29;20051;-76
2022/08/28 06:31:53;;;;;;;14.50;5.00;;;;;;;14.08;80.67;102020.19;4915179;29;20087;-77
2022/08/28 06:34:19;;;;;;;10.60;4.47;;;;;;;14.17;80.71;102020.88;4915196;29;20047;-76
2022/08/28 06:36:44;;;;;;;13.10;4.97;;;;;;;14.25;80.32;102022.53;4911909;29;20083;-76
2022/08/28 06:39:12;;;;;;;12.70;4.75;;;;;;;14.33;79.87;102029.47;4918832;29;20095;-77
2022/08/28 06:41:41;;;;;;;14.55;4.85;;;;;;;14.41;80.21;102026.66;4919279;29;20062;-77
2022/08/28 06:44:13;;;;;;;14.50;5.07;;;;;;;14.50;79.74;102025.63;4886739;29;20131;-76
2022/08/28 06:46:40;;;;;;;12.15;4.47;;;;;;;14.56;79.59;102028.19;4910007;29;20184;-77
2022/08/28 06:49:07;;;;;;;14.60;4.50;;;;;;;14.65;79.42;102032.47;4911921;29;20051;-77
2022/08/28 06:51:33;;;;;;;11.98;4.25;;;;;;;14.73;79.07;102035.84;4916416;29;20051;-77
2022/08/28 06:54:00;;;;;;;14.20;4.60;;;;;;;14.84;78.66;102039.19;4900297;29;20031;-77
2022/08/28 06:56:25;;;;;;;12.52;4.38;;;;;;;14.93;78.63;102046.13;4917332;29;20371;-77
2022/08/28 06:58:51;;;;;;;13.32;4.10;;;;;;;15.04;78.09;102041.44;4894389;29;20056;-77
2022/08/28 07:01:24;;;;;;;10.77;3.97;;;;;;;15.15;77.35;102043.88;4913415;29;20126;-77
2022/08/28 07:03:51;;;;;;;15.90;4.10;;;;;;;15.26;77.45;102040.06;4905529;29;20508;-77
2022/08/28 07:06:18;;;;;;;9.93;4.20;;;;;;;15.36;76.47;102042.53;4918311;29;20233;-77
2022/08/28 07:08:44;;;;;;;13.00;3.90;;;;;;;15.46;76.21;102052.09;4912177;29;20032;-77
2022/08/28 07:11:17;;;;;;;12.82;4.10;;;;;;;15.59;76.60;102040.19;4911390;29;20047;-77
2022/08/28 07:13:44;;;;;;;24.52;3.95;;;;;;;15.69;75.47;102041.75;4913100;29;20035;-77
2022/08/28 07:16:10;;;;;;;14.05;3.67;;;;;;;15.80;75.32;102033.50;4918562;29;20047;-77
2022/08/28 07:18:37;;;;;;;13.45;3.53;;;;;;;15.94;75.68;102037.63;4917001;29;20028;-77
2022/08/28 07:21:02;;;;;;;12.88;3.75;;;;;;;16.03;74.17;102038.25;4886628;29;20163;-77
2022/08/28 07:23:30;;;;;;;15.65;3.80;;;;;;;16.10;73.57;102037.19;4900698;29;20131;-77
2022/08/28 07:25:56;;;;;;;12.80;3.55;;;;;;;16.20;73.17;102034.28;4918224;29;20085;-77
2022/08/28 07:28:22;;;;;;;18.17;3.40;;;;;;;16.28;71.49;102035.81;4915724;29;20063;-77
2022/08/28 07:31:03;;;;;;;9.85;3.20;;;;;;;16.37;71.03;102040.06;4901026;29;20055;-77
2022/08/28 07:33:30;;;;;;;9.50;3.28;;;;;;;16.46;70.63;102038.91;4900853;29;20457;-77
2022/08/28 07:35:57;;;;;;;13.32;3.20;;;;;;;16.59;70.77;102042.13;4881363;29;20492;-77
2022/08/28 07:38:24;;;;;;;15.02;3.15;;;;;;;16.70;70.27;102040.03;4885218;29;20070;-77
2022/08/28 07:40:50;;;;;;;8.02;2.88;;;;;;;16.83;70.64;102040.59;4900118;29;20059;-78
2022/08/28 07:46:02;;;;;;;13.88;2.80;;;;;;;17.05;68.95;102052.41;4917861;29;20119;-78
2022/08/28 07:48:28;;;;;;;15.63;3.50;;;;;;;17.13;67.43;102058.41;4914313;29;20040;-78
2022/08/28 07:50:53;;;;;;;10.10;2.75;;;;;;;17.25;67.64;102051.81;4897858;29;20044;-78
2022/08/28 07:53:19;;;;;;;7.70;2.75;;;;;;;17.33;66.55;102056.94;4916936;29;20032;-77
2022/08/28 07:55:45;;;;;;;8.45;2.50;;;;;;;17.39;65.54;102051.41;4912751;29;20039;-80
2022/08/28 07:58:12;;;;;;;11.18;2.85;;;;;;;17.50;65.66;102059.09;4897272;29;20032;-78
2022/08/28 08:00:37;;;;;;;11.80;2.78;;;;;;;17.56;65.51;102058.91;4898729;29;20477;-78
2022/08/28 08:03:03;;;;;;;9.10;2.53;;;;;;;17.58;64.92;102065.06;4913426;29;20033;-77
2022/08/28 08:05:29;;;;;;;13.70;3.30;;;;;;;17.52;64.53;102065.28;4899933;29;20121;-78
2022/08/28 08:07:54;;;;;;;10.90;2.90;;;;;;;17.45;64.36;102064.59;4881502;29;20100;-78
2022/08/28 08:10:21;;;;;;;10.50;2.72;;;;;;;17.34;64.99;102064.94;4914792;29;20096;-77
2022/08/28 08:12:47;;;;;;;17.42;2.97;;;;;;;17.30;65.44;102073.97;4898512;29;20463;-77
2022/08/28 08:15:13;;;;;;;15.30;2.78;;;;;;;17.36;64.33;102072.94;4899567;29;20184;-77
2022/08/28 08:17:39;;;;;;;12.60;2.92;;;;;;;17.42;63.60;102070.03;4881874;29;20037;-77
2022/08/28 08:20:06;;;;;;;12.02;2.53;;;;;;;17.60;64.15;102073.94;4897816;29;20453;-77
2022/08/28 08:22:32;;;;;;;8.43;2.22;;;;;;;17.89;64.16;102073.03;4894277;29;20096;-77
2022/08/28 08:24:59;;;;;;;14.30;2.67;;;;;;;18.12;61.87;102071.41;4894825;29;20052;-78
2022/08/28 08:27:24;;;;;;;6.07;2.03;;;;;;;18.24;61.51;102069.16;4896610;29;20055;-77
2022/08/28 08:29:50;;;;;;;12.10;2.60;;;;;;;18.34;60.24;102067.03;4897585;29;20044;-77
2022/08/28 08:32:16;;;;;;;11.63;2.20;;;;;;;18.53;60.40;102072.66;4898090;29;20039;-78
2022/08/28 08:34:48;;;;;;;7.57;2.13;;;;;;;18.76;59.83;102074.53;4897038;29;20032;-77
2022/08/28 08:37:14;;;;;;;7.55;2.20;;;;;;;18.96;59.76;102071.09;4910458;29;20047;-77
2022/08/28 08:39:41;;;;;;;11.18;3.08;;;;;;;19.09;58.73;102074.22;4897132;29;20020;-78
2022/08/28 08:42:28;;;;;;;10.80;2.22;;;;;;;19.09;59.05;102068.88;4898379;29;20047;-77
2022/08/28 08:44:57;;;;;;;10.38;2.10;;;;;;;19.16;57.04;102066.78;4911974;29;20119;-78
2022/08/28 08:47:25;;;;;;;7.25;1.60;;;;;;;19.20;55.31;102074.69;4894381;29;20032;-77
2022/08/28 08:50:01;;;;;;;10.40;2.30;;;;;;;19.37;56.75;102074.03;4914209;29;20114;-78
2022/08/28 08:52:40;;;;;;;10.05;2.35;;;;;;;19.52;55.38;102075.25;4916144;29;20531;-81
2022/08/28 08:55:15;;;;;;;7.45;2.28;;;;;;;19.59;54.88;102075.88;4906459;29;20492;-79
2022/08/28 08:57:43;;;;;;;6.03;1.98;;;;;;;19.67;54.32;102068.38;4896431;29;20389;-77
2022/08/28 09:00:10;;;;;;;8.02;2.50;;;;;;;19.83;54.40;102065.94;4910672;29;20060;-76
2022/08/28 09:02:55;;;;;;;9.57;2.33;;;;;;;19.95;54.08;102068.13;4913970;29;20037;-77
2022/08/28 09:05:32;;;;;;;7.95;2.65;;;;;;;20.10;53.50;102059.44;4914521;29;20036;-76
2022/08/28 09:08:01;;;;;;;8.95;2.38;;;;;;;20.16;53.20;102058.31;4896480;29;20044;-76
2022/08/28 09:10:49;;;;;;;7.75;2.25;;;;;;;20.35;53.36;102063.75;4893361;29;20027;-76
2022/08/28 09:13:24;;;;;;;7.32;2.42;;;;;;;20.55;52.50;102066.50;4911395;29;20461;-76
2022/08/28 09:15:50;;;;;;;9.65;2.17;;;;;;;20.48;51.60;102064.97;4896448;29;20040;-76
2022/08/28 09:18:27;;;;;;;5.03;2.05;;;;;;;20.39;52.05;102066.25;4906054;29;20066;-76
2022/08/28 09:20:56;;;;;;;8.70;2.30;;;;;;;20.27;51.71;102071.28;4913566;29;20377;-76
2022/08/28 09:23:23;;;;;;;8.25;2.05;;;;;;;20.10;51.65;102075.59;4912519;29;20128;-82
2022/08/28 09:25:50;;;;;;;8.10;2.03;;;;;;;20.06;52.50;102078.47;4913096;29;20115;-82
2022/08/28 09:28:30;;;;;;;5.30;2.00;;;;;;;19.95;52.18;102076.19;4913884;29;20106;-81
2022/08/28 09:30:58;;;;;;;10.52;2.22;;;;;;;19.88;51.42;102072.91;4892345;29;20047;-82
2022/08/28 09:33:32;;;;;;;7.32;2.10;;;;;;;19.84;52.94;102079.34;4893595;29;20039;-83
2022/08/28 09:36:17;;;;;;;9.80;2.42;;;;;;;19.89;52.95;102077.34;4913484;29;20047;-83
2022/08/28 09:38:43;;;;;;;11.15;2.65;;;;;;;19.99;51.96;102069.78;4915198;29;20039;-83
2022/08/28 09:43:55;;;;;;;8.75;2.30;;;;;;;20.67;50.96;102058.78;4915230;29;20044;-83
2022/08/28 09:46:26;;;;;;;11.57;2.22;;;;;;;20.99;50.51;102068.09;4898242;29;20028;-83
2022/08/28 09:49:07;;;;;;;5.82;2.50;;;;;;;21.31;50.98;102065.72;4914248;29;20040;-83
2022/08/28 09:51:37;;;;;;;9.38;2.42;;;;;;;21.68;49.51;102071.09;4898550;29;20032;-83
2022/08/28 09:54:17;;;;;;;7.53;2.40;;;;;;;21.91;47.86;102055.63;4896007;29;20067;-83
2022/08/28 09:56:43;;;;;;;6.13;2.15;;;;;;;22.14;47.18;102057.16;4914446;29;20040;-83
2022/08/28 09:59:12;;;;;;;12.75;2.35;;;;;;;22.28;45.81;102061.88;4914160;29;20044;-84
2022/08/28 10:01:41;;;;;;;9.68;2.38;;;;;;;22.25;46.32;102054.78;4894608;29;20393;-83
2022/08/28 10:04:21;;;;;;;9.38;2.20;;;;;;;22.48;46.26;102056.31;4904353;29;20048;-83
2022/08/28 10:07:14;;;;;;;14.00;2.60;;;;;;;22.74;46.70;102051.34;4889149;29;20036;-83
2022/08/28 10:09:45;;;;;;;7.13;2.10;;;;;;;22.59;46.00;102061.13;4914785;29;20103;-83
2022/08/28 10:12:26;;;;;;;12.98;2.65;;;;;;;22.39;45.33;102064.00;4902267;29;20024;-83
2022/08/28 10:15:15;;;;;;;7.55;2.10;;;;;;;22.21;47.29;102068.53;4901608;29;20036;-83
2022/08/28 10:18:18;;;;;;;8.75;2.05;;;;;;;21.96;47.67;102064.38;4882230;29;20380;-83
2022/08/28 10:20:56;;;;;;;7.55;2.15;;;;;;;21.84;47.66;102070.38;4913685;29;20131;-83
2022/08/28 10:23:45;;;;;;;7.28;2.22;;;;;;;21.80;47.72;102064.25;4913978;29;20127;-83
2022/08/28 10:26:41;;;;;;;10.02;2.60;;;;;;;21.78;47.93;102063.44;4852109;29;20137;-83
2022/08/28 10:29:25;;;;;;;7.30;1.83;;;;;;;21.87;47.93;102065.69;4914826;29;20437;-83
2022/08/28 10:32:22;;;;;;;5.55;1.77;;;;;;;22.01;48.21;102059.59;4914902;29;20480;-83
2022/08/28 10:35:04;;;;;;;9.48;2.03;;;;;;;22.56;47.45;102061.31;4907205;29;20097;-82
2022/08/28 10:37:43;;;;;;;5.13;2.28;;;;;;;23.02;46.88;102058.88;4912780;29;20036;-84
2022/08/28 10:40:30;;;;;;;5.15;1.90;;;;;;;23.43;45.98;102052.94;4897696;29;20047;-84
2022/08/28 10:43:15;;;;;;;6.10;2.42;;;;;;;23.81;44.06;102056.19;4904866;29;20054;-83
2022/08/28 10:45:41;;;;;;;5.63;1.77;;;;;;;24.15;43.00;102051.47;4906501;29;20051;-83
2022/08/28 10:48:18;;;;;;;7.63;2.17;;;;;;;24.25;42.34;102055.38;4902219;29;20052;-80
2022/08/28 10:50:52;;;;;;;6.85;1.95;;;;;;;24.54;41.93;102050.06;4899978;29;20053;-79
2022/08/28 10:53:34;;;;;;;8.32;2.10;;;;;;;24.23;40.36;102051.00;4887553;29;20174;-81
2022/08/28 10:56:07;;;;;;;5.82;1.65;;;;;;;23.78;41.43;102061.75;4904720;29;20074;-81
2022/08/28 10:58:37;;;;;;;7.28;2.38;;;;;;;23.35;40.89;102068.75;4891722;29;20031;-81
2022/08/28 11:01:12;;;;;;;5.85;1.83;;;;;;;23.04;42.40;102064.16;4901537;29;20507;-80
2022/08/28 11:03:45;;;;;;;3.58;1.65;;;;;;;23.13;42.82;102064.53;4900972;29;20028;-80
2022/08/28 11:06:48;;;;;;;6.88;1.98;;;;;;;23.47;42.62;102062.66;4901353;29;20034;-81
2022/08/28 11:09:25;;;;;;;7.10;1.92;;;;;;;23.73;42.23;102065.72;4902091;29;20075;-81
2022/08/28 11:12:04;;;;;;;4.72;1.92;;;;;;;24.18;42.08;102050.41;4907494;29;20053;-81
2022/08/28 11:14:34;;;;;;;4.65;1.60;;;;;;;24.58;40.32;102045.31;4891265;29;20107;-81
2022/08/28 11:17:06;;;;;;;3.63;1.73;;;;;;;24.66;38.03;102054.72;4888785;29;20045;-81
2022/08/28 11:19:56;;;;;;;4.95;1.77;;;;;;;24.50;38.71;102055.75;4903629;29;20075;-81
2022/08/28 11:22:33;;;;;;;5.95;1.92;;;;;;;24.27;38.66;102044.47;4898265;29;20187;-81
2022/08/28 11:25:10;;;;;;;6.28;1.60;;;;;;;23.99;38.67;102054.25;4909377;29;20143;-81
2022/08/28 11:27:38;;;;;;;6.10;1.85;;;;;;;23.75;38.85;102061.94;4905674;29;20055;-81
2022/08/28 11:30:10;;;;;;;2.92;1.50;;;;;;;24.15;41.16;102054.19;4896550;29;20028;-81
2022/08/28 11:32:50;;;;;;;4.28;1.40;;;;;;;24.31;38.25;102056.84;4903614;29;20036;-81
2022/08/28 11:35:19;;;;;;;;;;;;;;;24.24;39.72;102059.06;4895344;29;20127;-81